sensor_id;sensor_type;location;lat;lon;timestamp;noise_LAeq;noise_LA_min;noise_LA_max;noise_LA01;noise_LA95
186;Laerm;55473;48.800;9.002;2023-07-31T00:00:34;42.22;36.78;50.12;;
186;Laerm;55473;48.800;9.002;2023-07-31T00:03:00;42.31;36.76;51.52;;
186;Laerm;55473;48.800;9.002;2023-07-31T00:05:26;45.64;36.68;57.50;;
186;Laerm;55473;48.800;9.002;2023-07-31T00:07:51;42.25;36.64;50.04;;
186;Laerm;55473;48.800;9.002;2023-07-31T00:10:17;42.50;37.07;50.52;;
186;Laerm;55473;48.800;9.002;2023-07-31T00:12:45;42.59;36.00;50.97;;
186;Laerm;55473;48.800;9.002;2023-07-31T00:15:14;42.60;36.53;51.00;;
186;Laerm;55473;48.800;9.002;2023-07-31T00:17:40;42.32;36.97;49.33;;
186;Laerm;55473;48.800;9.002;2023-07-31T00:20:06;42.21;36.61;51.43;;
186;Laerm;55473;48.800;9.002;2023-07-31T00:22:32;42.21;36.59;49.71;;
186;Laerm;55473;48.800;9.002;2023-07-31T00:24:58;42.37;37.23;52.47;;
186;Laerm;55473;48.800;9.002;2023-07-31T00:27:25;42.50;37.29;51.06;;
186;Laerm;55473;48.800;9.002;2023-07-31T00:29:51;42.58;37.50;53.23;;
186;Laerm;55473;48.800;9.002;2023-07-31T00:32:17;42.56;37.32;53.17;;
186;Laerm;55473;48.800;9.002;2023-07-31T00:34:43;42.50;36.81;51.83;;
186;Laerm;55473;48.800;9.002;2023-07-31T00:37:09;42.34;36.53;50.65;;
186;Laerm;55473;48.800;9.002;2023-07-31T00:39:35;42.80;37.06;53.85;;
186;Laerm;55473;48.800;9.002;2023-07-31T00:42:01;42.54;37.00;52.30;;
186;Laerm;55473;48.800;9.002;2023-07-31T00:44:27;42.92;37.66;52.59;;
186;Laerm;55473;48.800;9.002;2023-07-31T00:46:54;42.57;36.73;54.72;;
186;Laerm;55473;48.800;9.002;2023-07-31T00:49:22;42.43;36.45;50.00;;
186;Laerm;55473;48.800;9.002;2023-07-31T00:51:49;42.54;36.63;54.87;;
186;Laerm;55473;48.800;9.002;2023-07-31T00:54:14;42.37;36.54;50.09;;
186;Laerm;55473;48.800;9.002;2023-07-31T00:56:41;42.84;36.33;51.02;;
186;Laerm;55473;48.800;9.002;2023-07-31T00:59:10;42.27;36.64;51.53;;
186;Laerm;55473;48.800;9.002;2023-07-31T01:01:36;42.54;36.79;53.78;;
186;Laerm;55473;48.800;9.002;2023-07-31T01:04:02;42.33;37.14;51.67;;
186;Laerm;55473;48.800;9.002;2023-07-31T01:12:24;43.33;38.31;53.95;;
186;Laerm;55473;48.800;9.002;2023-07-31T01:15:09;43.04;37.37;59.24;;
186;Laerm;55473;48.800;9.002;2023-07-31T01:17:41;42.45;37.35;50.79;;
186;Laerm;55473;48.800;9.002;2023-07-31T01:20:22;42.86;36.97;54.26;;
186;Laerm;55473;48.800;9.002;2023-07-31T01:26:12;42.68;37.10;51.36;;
186;Laerm;55473;48.800;9.002;2023-07-31T01:29:15;42.60;37.23;50.37;;
186;Laerm;55473;48.800;9.002;2023-07-31T01:31:48;42.75;37.59;54.12;;
186;Laerm;55473;48.800;9.002;2023-07-31T01:34:18;42.59;37.15;49.94;;
186;Laerm;55473;48.800;9.002;2023-07-31T01:36:45;42.56;36.76;51.25;;
186;Laerm;55473;48.800;9.002;2023-07-31T01:39:10;42.40;37.58;52.71;;
186;Laerm;55473;48.800;9.002;2023-07-31T01:41:36;42.56;36.84;50.66;;
186;Laerm;55473;48.800;9.002;2023-07-31T01:44:02;42.37;36.77;50.58;;
186;Laerm;55473;48.800;9.002;2023-07-31T01:46:28;42.56;37.33;49.29;;
186;Laerm;55473;48.800;9.002;2023-07-31T01:48:54;42.36;37.02;52.85;;
186;Laerm;55473;48.800;9.002;2023-07-31T01:51:20;42.38;37.25;52.89;;
186;Laerm;55473;48.800;9.002;2023-07-31T01:53:45;42.71;37.67;53.27;;
186;Laerm;55473;48.800;9.002;2023-07-31T01:56:11;42.42;37.13;51.99;;
186;Laerm;55473;48.800;9.002;2023-07-31T01:58:37;42.56;38.02;53.69;;
186;Laerm;55473;48.800;9.002;2023-07-31T02:01:03;42.47;37.32;54.84;;
186;Laerm;55473;48.800;9.002;2023-07-31T02:03:29;44.88;37.32;54.12;;
186;Laerm;55473;48.800;9.002;2023-07-31T02:05:55;43.42;37.79;52.43;;
186;Laerm;55473;48.800;9.002;2023-07-31T02:08:21;42.81;37.10;51.58;;
186;Laerm;55473;48.800;9.002;2023-07-31T02:10:46;42.86;37.72;52.38;;
186;Laerm;55473;48.800;9.002;2023-07-31T02:13:12;42.87;37.41;51.43;;
186;Laerm;55473;48.800;9.002;2023-07-31T02:15:38;42.60;38.04;50.67;;
186;Laerm;55473;48.800;9.002;2023-07-31T02:18:04;42.67;37.98;50.94;;
186;Laerm;55473;48.800;9.002;2023-07-31T02:20:33;43.12;38.58;51.85;;
186;Laerm;55473;48.800;9.002;2023-07-31T02:22:59;42.88;37.36;51.27;;
186;Laerm;55473;48.800;9.002;2023-07-31T02:25:25;42.76;37.68;50.43;;
186;Laerm;55473;48.800;9.002;2023-07-31T02:27:51;43.24;38.44;52.37;;
186;Laerm;55473;48.800;9.002;2023-07-31T02:30:17;43.06;37.45;52.87;;
186;Laerm;55473;48.800;9.002;2023-07-31T02:32:42;42.92;37.73;53.41;;
186;Laerm;55473;48.800;9.002;2023-07-31T02:35:08;42.94;38.63;50.50;;
186;Laerm;55473;48.800;9.002;2023-07-31T02:37:34;43.11;38.59;51.34;;
186;Laerm;55473;48.800;9.002;2023-07-31T02:40:00;42.95;37.62;50.54;;
186;Laerm;55473;48.800;9.002;2023-07-31T02:42:26;43.08;38.11;52.63;;
186;Laerm;55473;48.800;9.002;2023-07-31T02:44:52;43.31;38.49;52.48;;
186;Laerm;55473;48.800;9.002;2023-07-31T02:47:22;45.85;39.10;56.56;;
186;Laerm;55473;48.800;9.002;2023-07-31T02:49:48;45.63;38.73;58.04;;
186;Laerm;55473;48.800;9.002;2023-07-31T02:52:14;43.49;38.69;52.60;;
186;Laerm;55473;48.800;9.002;2023-07-31T02:54:40;43.56;38.73;54.25;;
186;Laerm;55473;48.800;9.002;2023-07-31T02:57:06;43.76;38.81;52.94;;
186;Laerm;55473;48.800;9.002;2023-07-31T02:59:31;44.54;39.01;53.22;;
186;Laerm;55473;48.800;9.002;2023-07-31T03:01:57;44.34;39.07;52.81;;
186;Laerm;55473;48.800;9.002;2023-07-31T03:04:23;44.30;38.95;51.80;;
186;Laerm;55473;48.800;9.002;2023-07-31T03:06:49;43.39;38.76;52.43;;
186;Laerm;55473;48.800;9.002;2023-07-31T03:09:15;43.05;38.92;50.49;;
186;Laerm;55473;48.800;9.002;2023-07-31T03:11:40;43.61;39.40;51.75;;
186;Laerm;55473;48.800;9.002;2023-07-31T03:14:06;43.68;39.78;54.00;;
186;Laerm;55473;48.800;9.002;2023-07-31T03:16:32;43.57;39.42;52.44;;
186;Laerm;55473;48.800;9.002;2023-07-31T03:18:58;48.13;40.85;60.17;;
186;Laerm;55473;48.800;9.002;2023-07-31T03:21:24;44.09;39.42;53.42;;
186;Laerm;55473;48.800;9.002;2023-07-31T03:23:50;43.81;39.31;51.89;;
186;Laerm;55473;48.800;9.002;2023-07-31T03:26:16;44.02;39.33;50.94;;
186;Laerm;55473;48.800;9.002;2023-07-31T03:28:42;45.10;39.96;53.17;;
186;Laerm;55473;48.800;9.002;2023-07-31T03:31:07;44.58;40.20;53.09;;
186;Laerm;55473;48.800;9.002;2023-07-31T03:33:34;44.39;40.79;52.95;;
186;Laerm;55473;48.800;9.002;2023-07-31T03:35:59;46.41;40.37;56.23;;
186;Laerm;55473;48.800;9.002;2023-07-31T03:38:25;44.40;40.75;51.31;;
186;Laerm;55473;48.800;9.002;2023-07-31T03:40:51;44.23;40.52;56.90;;
186;Laerm;55473;48.800;9.002;2023-07-31T03:43:17;44.27;40.58;53.09;;
186;Laerm;55473;48.800;9.002;2023-07-31T03:45:43;46.03;41.54;53.26;;
186;Laerm;55473;48.800;9.002;2023-07-31T03:48:09;47.61;40.80;56.87;;
186;Laerm;55473;48.800;9.002;2023-07-31T03:50:35;44.86;40.79;51.23;;
186;Laerm;55473;48.800;9.002;2023-07-31T03:53:00;44.29;41.09;52.27;;
186;Laerm;55473;48.800;9.002;2023-07-31T03:55:26;44.92;41.79;51.20;;
186;Laerm;55473;48.800;9.002;2023-07-31T03:57:52;44.30;40.75;53.03;;
186;Laerm;55473;48.800;9.002;2023-07-31T04:00:18;45.17;40.74;53.90;;
186;Laerm;55473;48.800;9.002;2023-07-31T04:02:44;47.13;41.27;58.36;;
186;Laerm;55473;48.800;9.002;2023-07-31T04:05:10;45.61;42.01;59.00;;
186;Laerm;55473;48.800;9.002;2023-07-31T04:07:36;44.97;40.75;54.77;;
186;Laerm;55473;48.800;9.002;2023-07-31T04:10:03;45.21;41.51;53.47;;
186;Laerm;55473;48.800;9.002;2023-07-31T04:12:29;45.41;41.27;51.93;;
186;Laerm;55473;48.800;9.002;2023-07-31T04:14:55;45.42;40.87;56.95;;
186;Laerm;55473;48.800;9.002;2023-07-31T04:17:21;50.78;41.86;60.53;;
186;Laerm;55473;48.800;9.002;2023-07-31T04:19:47;46.90;41.76;55.76;;
186;Laerm;55473;48.800;9.002;2023-07-31T04:22:13;44.62;40.96;57.67;;
186;Laerm;55473;48.800;9.002;2023-07-31T04:24:38;44.08;39.84;53.19;;
186;Laerm;55473;48.800;9.002;2023-07-31T04:27:04;44.82;41.22;55.43;;
186;Laerm;55473;48.800;9.002;2023-07-31T04:29:30;46.96;40.56;64.70;;
186;Laerm;55473;48.800;9.002;2023-07-31T04:31:56;48.69;42.78;57.79;;
186;Laerm;55473;48.800;9.002;2023-07-31T04:34:22;45.82;40.69;56.88;;
186;Laerm;55473;48.800;9.002;2023-07-31T04:36:48;48.99;40.85;59.98;;
186;Laerm;55473;48.800;9.002;2023-07-31T04:39:14;45.55;40.97;58.50;;
186;Laerm;55473;48.800;9.002;2023-07-31T04:41:39;46.55;42.05;53.89;;
186;Laerm;55473;48.800;9.002;2023-07-31T04:44:05;46.62;41.81;59.05;;
186;Laerm;55473;48.800;9.002;2023-07-31T04:46:31;46.88;41.40;54.94;;
186;Laerm;55473;48.800;9.002;2023-07-31T04:48:57;48.70;42.60;60.90;;
186;Laerm;55473;48.800;9.002;2023-07-31T04:51:23;44.89;40.62;54.37;;
186;Laerm;55473;48.800;9.002;2023-07-31T04:53:49;45.62;40.69;56.24;;
186;Laerm;55473;48.800;9.002;2023-07-31T04:56:15;44.62;40.57;49.97;;
186;Laerm;55473;48.800;9.002;2023-07-31T04:58:42;45.69;40.36;55.34;;
186;Laerm;55473;48.800;9.002;2023-07-31T05:01:08;46.25;41.06;60.95;;
186;Laerm;55473;48.800;9.002;2023-07-31T05:03:33;47.82;41.07;57.87;;
186;Laerm;55473;48.800;9.002;2023-07-31T05:05:59;46.31;41.29;55.01;;
186;Laerm;55473;48.800;9.002;2023-07-31T05:08:25;44.95;41.33;52.70;;
186;Laerm;55473;48.800;9.002;2023-07-31T05:10:51;53.31;41.13;62.15;;
186;Laerm;55473;48.800;9.002;2023-07-31T05:13:17;46.31;41.65;56.59;;
186;Laerm;55473;48.800;9.002;2023-07-31T05:15:43;48.52;41.32;65.38;;
186;Laerm;55473;48.800;9.002;2023-07-31T05:18:09;47.70;42.07;57.17;;
186;Laerm;55473;48.800;9.002;2023-07-31T05:20:35;45.43;40.83;51.75;;
186;Laerm;55473;48.800;9.002;2023-07-31T05:23:01;45.06;41.16;53.28;;
186;Laerm;55473;48.800;9.002;2023-07-31T05:25:26;45.50;41.03;62.13;;
186;Laerm;55473;48.800;9.002;2023-07-31T05:27:52;45.83;41.47;53.28;;
186;Laerm;55473;48.800;9.002;2023-07-31T05:30:18;47.55;42.64;59.97;;
186;Laerm;55473;48.800;9.002;2023-07-31T05:32:44;47.85;41.84;63.49;;
186;Laerm;55473;48.800;9.002;2023-07-31T05:35:10;49.69;41.93;59.15;;
186;Laerm;55473;48.800;9.002;2023-07-31T05:37:36;46.15;41.05;57.25;;
186;Laerm;55473;48.800;9.002;2023-07-31T05:40:02;45.63;41.44;59.06;;
186;Laerm;55473;48.800;9.002;2023-07-31T05:42:28;45.78;41.42;54.52;;
186;Laerm;55473;48.800;9.002;2023-07-31T05:44:54;47.84;41.89;60.13;;
186;Laerm;55473;48.800;9.002;2023-07-31T05:47:20;49.32;42.15;64.34;;
186;Laerm;55473;48.800;9.002;2023-07-31T05:49:46;47.11;42.13;57.46;;
186;Laerm;55473;48.800;9.002;2023-07-31T05:52:11;54.98;42.16;63.31;;
186;Laerm;55473;48.800;9.002;2023-07-31T05:54:37;46.50;41.96;59.55;;
186;Laerm;55473;48.800;9.002;2023-07-31T05:57:03;47.30;42.23;61.02;;
186;Laerm;55473;48.800;9.002;2023-07-31T05:59:29;51.44;43.70;67.87;;
186;Laerm;55473;48.800;9.002;2023-07-31T06:01:59;47.60;41.52;59.02;;
186;Laerm;55473;48.800;9.002;2023-07-31T06:04:25;47.57;41.18;58.43;;
186;Laerm;55473;48.800;9.002;2023-07-31T06:06:52;46.97;40.65;60.63;;
186;Laerm;55473;48.800;9.002;2023-07-31T06:09:17;45.87;41.38;58.06;;
186;Laerm;55473;48.800;9.002;2023-07-31T06:11:43;45.61;41.73;55.49;;
186;Laerm;55473;48.800;9.002;2023-07-31T06:14:09;45.78;41.52;62.44;;
186;Laerm;55473;48.800;9.002;2023-07-31T06:16:35;48.04;41.98;61.69;;
186;Laerm;55473;48.800;9.002;2023-07-31T06:19:01;47.38;42.06;69.12;;
186;Laerm;55473;48.800;9.002;2023-07-31T06:21:27;48.22;42.56;59.77;;
186;Laerm;55473;48.800;9.002;2023-07-31T06:23:53;46.30;41.59;59.75;;
186;Laerm;55473;48.800;9.002;2023-07-31T06:26:19;45.70;41.50;61.92;;
186;Laerm;55473;48.800;9.002;2023-07-31T06:28:45;46.45;41.86;63.68;;
186;Laerm;55473;48.800;9.002;2023-07-31T06:31:12;47.58;41.50;57.12;;
186;Laerm;55473;48.800;9.002;2023-07-31T06:33:38;47.84;41.26;61.24;;
186;Laerm;55473;48.800;9.002;2023-07-31T06:36:04;46.28;40.84;56.38;;
186;Laerm;55473;48.800;9.002;2023-07-31T06:38:30;45.13;40.76;55.39;;
186;Laerm;55473;48.800;9.002;2023-07-31T06:40:56;46.72;41.78;61.83;;
186;Laerm;55473;48.800;9.002;2023-07-31T06:43:21;49.57;41.29;70.12;;
186;Laerm;55473;48.800;9.002;2023-07-31T06:45:47;48.69;41.95;55.75;;
186;Laerm;55473;48.800;9.002;2023-07-31T06:48:16;49.02;41.70;60.68;;
186;Laerm;55473;48.800;9.002;2023-07-31T06:50:42;45.77;41.66;57.25;;
186;Laerm;55473;48.800;9.002;2023-07-31T06:53:08;46.15;41.68;63.06;;
186;Laerm;55473;48.800;9.002;2023-07-31T06:55:34;46.58;40.90;60.99;;
186;Laerm;55473;48.800;9.002;2023-07-31T06:58:00;47.18;42.84;57.28;;
186;Laerm;55473;48.800;9.002;2023-07-31T07:00:26;46.96;41.25;57.11;;
186;Laerm;55473;48.800;9.002;2023-07-31T07:02:52;47.16;40.70;57.47;;
186;Laerm;55473;48.800;9.002;2023-07-31T07:05:18;45.99;40.85;61.94;;
186;Laerm;55473;48.800;9.002;2023-07-31T07:07:44;49.63;40.00;62.90;;
186;Laerm;55473;48.800;9.002;2023-07-31T07:10:10;46.40;40.67;63.92;;
186;Laerm;55473;48.800;9.002;2023-07-31T07:12:36;45.83;41.42;54.58;;
186;Laerm;55473;48.800;9.002;2023-07-31T07:15:03;48.03;41.77;57.48;;
186;Laerm;55473;48.800;9.002;2023-07-31T07:17:30;49.27;41.40;58.64;;
186;Laerm;55473;48.800;9.002;2023-07-31T07:20:00;46.50;40.76;52.95;;
186;Laerm;55473;48.800;9.002;2023-07-31T07:22:26;44.74;40.49;54.04;;
186;Laerm;55473;48.800;9.002;2023-07-31T07:24:53;45.51;40.95;57.92;;
186;Laerm;55473;48.800;9.002;2023-07-31T07:27:20;46.10;41.67;62.68;;
186;Laerm;55473;48.800;9.002;2023-07-31T07:29:46;47.95;42.26;60.21;;
186;Laerm;55473;48.800;9.002;2023-07-31T07:32:12;48.61;41.90;59.55;;
186;Laerm;55473;48.800;9.002;2023-07-31T07:34:38;45.90;41.48;65.23;;
186;Laerm;55473;48.800;9.002;2023-07-31T07:37:05;46.82;40.80;59.53;;
186;Laerm;55473;48.800;9.002;2023-07-31T07:39:31;46.06;41.68;56.01;;
186;Laerm;55473;48.800;9.002;2023-07-31T07:41:57;47.76;42.10;58.76;;
186;Laerm;55473;48.800;9.002;2023-07-31T07:44:22;46.16;41.33;59.12;;
186;Laerm;55473;48.800;9.002;2023-07-31T07:46:48;50.55;43.03;58.71;;
186;Laerm;55473;48.800;9.002;2023-07-31T07:49:14;50.24;43.11;65.28;;
186;Laerm;55473;48.800;9.002;2023-07-31T07:51:40;47.09;42.97;55.01;;
186;Laerm;55473;48.800;9.002;2023-07-31T07:54:06;47.22;42.41;65.15;;
186;Laerm;55473;48.800;9.002;2023-07-31T07:56:33;46.97;41.35;63.62;;
186;Laerm;55473;48.800;9.002;2023-07-31T07:58:59;47.15;41.14;55.92;;
186;Laerm;55473;48.800;9.002;2023-07-31T08:01:24;48.36;42.90;61.95;;
186;Laerm;55473;48.800;9.002;2023-07-31T08:03:50;48.41;42.73;63.77;;
186;Laerm;55473;48.800;9.002;2023-07-31T08:06:17;50.32;43.74;69.79;;
186;Laerm;55473;48.800;9.002;2023-07-31T08:08:42;47.82;41.77;72.45;;
186;Laerm;55473;48.800;9.002;2023-07-31T08:11:08;47.18;43.09;63.37;;
186;Laerm;55473;48.800;9.002;2023-07-31T08:13:34;48.29;42.00;66.75;;
186;Laerm;55473;48.800;9.002;2023-07-31T08:16:03;48.90;43.26;60.20;;
186;Laerm;55473;48.800;9.002;2023-07-31T08:18:31;50.38;42.98;59.09;;
186;Laerm;55473;48.800;9.002;2023-07-31T08:20:57;47.25;42.63;65.36;;
186;Laerm;55473;48.800;9.002;2023-07-31T08:23:23;46.58;41.97;67.22;;
186;Laerm;55473;48.800;9.002;2023-07-31T08:25:49;47.01;41.84;58.50;;
186;Laerm;55473;48.800;9.002;2023-07-31T08:28:16;47.53;41.22;66.21;;
186;Laerm;55473;48.800;9.002;2023-07-31T08:30:42;47.53;40.28;57.34;;
186;Laerm;55473;48.800;9.002;2023-07-31T08:33:08;48.91;41.82;57.59;;
186;Laerm;55473;48.800;9.002;2023-07-31T08:35:34;46.96;42.16;60.02;;
186;Laerm;55473;48.800;9.002;2023-07-31T08:38:00;52.59;41.88;61.05;;
186;Laerm;55473;48.800;9.002;2023-07-31T08:40:26;44.37;40.73;56.99;;
186;Laerm;55473;48.800;9.002;2023-07-31T08:42:55;54.13;41.99;64.39;;
186;Laerm;55473;48.800;9.002;2023-07-31T08:45:30;47.47;41.84;58.53;;
186;Laerm;55473;48.800;9.002;2023-07-31T08:47:56;49.13;42.64;59.81;;
186;Laerm;55473;48.800;9.002;2023-07-31T08:50:25;47.54;42.72;61.58;;
186;Laerm;55473;48.800;9.002;2023-07-31T08:52:52;45.34;40.42;61.42;;
186;Laerm;55473;48.800;9.002;2023-07-31T08:55:19;50.35;41.20;76.76;;
186;Laerm;55473;48.800;9.002;2023-07-31T08:57:51;64.09;41.32;96.50;;
186;Laerm;55473;48.800;9.002;2023-07-31T09:00:21;54.94;43.57;70.45;;
186;Laerm;55473;48.800;9.002;2023-07-31T09:03:00;48.36;42.30;57.30;;
186;Laerm;55473;48.800;9.002;2023-07-31T09:05:31;46.17;40.75;54.34;;
186;Laerm;55473;48.800;9.002;2023-07-31T09:07:58;45.03;40.54;51.07;;
186;Laerm;55473;48.800;9.002;2023-07-31T09:10:24;44.15;40.17;55.26;;
186;Laerm;55473;48.800;9.002;2023-07-31T09:12:53;48.34;42.01;57.23;;
186;Laerm;55473;48.800;9.002;2023-07-31T09:15:20;50.14;41.45;60.88;;
186;Laerm;55473;48.800;9.002;2023-07-31T09:17:47;49.21;41.99;63.14;;
186;Laerm;55473;48.800;9.002;2023-07-31T09:22:42;48.57;41.48;68.66;;
186;Laerm;55473;48.800;9.002;2023-07-31T09:28:05;46.41;40.06;60.42;;
186;Laerm;55473;48.800;9.002;2023-07-31T09:30:49;47.14;42.64;62.81;;
186;Laerm;55473;48.800;9.002;2023-07-31T09:33:16;49.12;42.83;63.07;;
186;Laerm;55473;48.800;9.002;2023-07-31T09:35:42;47.02;42.99;56.83;;
186;Laerm;55473;48.800;9.002;2023-07-31T09:38:14;45.58;41.71;60.50;;
186;Laerm;55473;48.800;9.002;2023-07-31T09:40:47;46.26;40.71;59.44;;
186;Laerm;55473;48.800;9.002;2023-07-31T09:43:19;47.96;40.88;56.70;;
186;Laerm;55473;48.800;9.002;2023-07-31T09:45:45;48.02;41.54;55.35;;
186;Laerm;55473;48.800;9.002;2023-07-31T09:48:17;48.63;41.58;55.29;;
186;Laerm;55473;48.800;9.002;2023-07-31T09:50:46;49.39;42.26;61.01;;
186;Laerm;55473;48.800;9.002;2023-07-31T09:53:12;49.13;42.71;66.47;;
186;Laerm;55473;48.800;9.002;2023-07-31T09:55:41;45.77;40.52;57.21;;
186;Laerm;55473;48.800;9.002;2023-07-31T09:58:10;47.26;42.70;57.28;;
186;Laerm;55473;48.800;9.002;2023-07-31T10:00:37;48.22;40.36;60.20;;
186;Laerm;55473;48.800;9.002;2023-07-31T10:03:09;48.88;42.83;61.03;;
186;Laerm;55473;48.800;9.002;2023-07-31T10:05:42;48.52;43.15;58.37;;
186;Laerm;55473;48.800;9.002;2023-07-31T10:08:10;44.63;40.85;54.35;;
186;Laerm;55473;48.800;9.002;2023-07-31T10:10:43;46.85;41.81;63.33;;
186;Laerm;55473;48.800;9.002;2023-07-31T10:13:09;47.40;42.03;66.71;;
186;Laerm;55473;48.800;9.002;2023-07-31T10:15:36;47.10;41.01;65.31;;
186;Laerm;55473;48.800;9.002;2023-07-31T10:18:06;49.59;40.13;63.16;;
186;Laerm;55473;48.800;9.002;2023-07-31T10:20:32;45.81;41.68;53.70;;
186;Laerm;55473;48.800;9.002;2023-07-31T10:22:59;44.72;40.52;61.57;;
186;Laerm;55473;48.800;9.002;2023-07-31T10:25:29;46.77;41.08;52.87;;
186;Laerm;55473;48.800;9.002;2023-07-31T10:27:57;45.57;40.35;55.49;;
186;Laerm;55473;48.800;9.002;2023-07-31T10:30:29;48.32;41.00;55.85;;
186;Laerm;55473;48.800;9.002;2023-07-31T10:32:57;48.25;41.55;59.23;;
186;Laerm;55473;48.800;9.002;2023-07-31T10:35:24;44.79;40.18;51.80;;
186;Laerm;55473;48.800;9.002;2023-07-31T10:37:50;47.55;41.79;55.28;;
186;Laerm;55473;48.800;9.002;2023-07-31T10:40:25;44.71;39.71;59.00;;
186;Laerm;55473;48.800;9.002;2023-07-31T10:42:56;46.75;41.77;59.23;;
186;Laerm;55473;48.800;9.002;2023-07-31T10:45:37;49.96;41.24;73.38;;
186;Laerm;55473;48.800;9.002;2023-07-31T10:48:14;50.01;42.91;67.43;;
186;Laerm;55473;48.800;9.002;2023-07-31T10:50:56;46.30;42.04;54.46;;
186;Laerm;55473;48.800;9.002;2023-07-31T10:53:26;45.73;40.79;55.28;;
186;Laerm;55473;48.800;9.002;2023-07-31T10:55:52;45.98;41.73;52.47;;
186;Laerm;55473;48.800;9.002;2023-07-31T10:58:20;47.86;41.52;66.57;;
186;Laerm;55473;48.800;9.002;2023-07-31T11:00:47;47.07;40.98;63.34;;
186;Laerm;55473;48.800;9.002;2023-07-31T11:03:16;51.06;41.44;69.03;;
186;Laerm;55473;48.800;9.002;2023-07-31T11:08:24;48.40;41.01;73.55;;
186;Laerm;55473;48.800;9.002;2023-07-31T11:11:09;45.54;41.05;58.50;;
186;Laerm;55473;48.800;9.002;2023-07-31T11:13:47;45.75;41.15;59.38;;
186;Laerm;55473;48.800;9.002;2023-07-31T11:16:20;49.14;41.35;60.80;;
186;Laerm;55473;48.800;9.002;2023-07-31T11:18:47;48.54;41.62;56.91;;
186;Laerm;55473;48.800;9.002;2023-07-31T11:21:23;45.22;41.07;53.37;;
186;Laerm;55473;48.800;9.002;2023-07-31T11:23:52;44.60;40.20;59.80;;
186;Laerm;55473;48.800;9.002;2023-07-31T11:26:20;45.18;40.51;56.71;;
186;Laerm;55473;48.800;9.002;2023-07-31T11:28:50;51.27;40.81;71.86;;
186;Laerm;55473;48.800;9.002;2023-07-31T11:31:17;51.12;39.42;72.00;;
186;Laerm;55473;48.800;9.002;2023-07-31T11:33:43;47.48;40.02;60.10;;
186;Laerm;55473;48.800;9.002;2023-07-31T11:36:18;43.95;39.35;56.21;;
186;Laerm;55473;48.800;9.002;2023-07-31T11:38:44;45.12;40.11;65.25;;
186;Laerm;55473;48.800;9.002;2023-07-31T11:41:16;45.99;39.97;66.70;;
186;Laerm;55473;48.800;9.002;2023-07-31T11:43:42;45.77;40.54;59.48;;
186;Laerm;55473;48.800;9.002;2023-07-31T11:46:09;57.64;40.81;79.71;;
186;Laerm;55473;48.800;9.002;2023-07-31T11:48:37;57.25;42.20;77.86;;
186;Laerm;55473;48.800;9.002;2023-07-31T11:51:06;58.47;41.77;79.92;;
186;Laerm;55473;48.800;9.002;2023-07-31T11:53:47;55.97;42.15;80.01;;
186;Laerm;55473;48.800;9.002;2023-07-31T11:56:18;53.90;41.23;72.79;;
186;Laerm;55473;48.800;9.002;2023-07-31T11:58:47;49.67;40.98;71.53;;
186;Laerm;55473;48.800;9.002;2023-07-31T12:01:18;50.77;39.58;72.57;;
186;Laerm;55473;48.800;9.002;2023-07-31T12:03:47;56.79;41.40;77.04;;
186;Laerm;55473;48.800;9.002;2023-07-31T12:06:13;51.61;40.30;73.61;;
186;Laerm;55473;48.800;9.002;2023-07-31T12:08:39;51.03;41.31;72.13;;
186;Laerm;55473;48.800;9.002;2023-07-31T12:11:08;49.14;40.99;70.93;;
186;Laerm;55473;48.800;9.002;2023-07-31T12:13:37;50.35;40.97;72.32;;
186;Laerm;55473;48.800;9.002;2023-07-31T12:16:04;50.23;43.37;65.64;;
186;Laerm;55473;48.800;9.002;2023-07-31T12:18:39;52.00;42.74;65.21;;
186;Laerm;55473;48.800;9.002;2023-07-31T12:21:08;47.95;42.61;63.71;;
186;Laerm;55473;48.800;9.002;2023-07-31T12:23:37;47.30;41.15;64.26;;
186;Laerm;55473;48.800;9.002;2023-07-31T12:26:16;46.78;41.49;61.87;;
186;Laerm;55473;48.800;9.002;2023-07-31T12:31:16;47.27;40.88;62.73;;
186;Laerm;55473;48.800;9.002;2023-07-31T12:33:47;49.86;40.52;68.88;;
186;Laerm;55473;48.800;9.002;2023-07-31T12:36:22;46.67;40.86;64.73;;
186;Laerm;55473;48.800;9.002;2023-07-31T12:38:50;47.57;41.40;64.96;;
186;Laerm;55473;48.800;9.002;2023-07-31T12:41:17;48.97;42.55;64.26;;
186;Laerm;55473;48.800;9.002;2023-07-31T12:43:45;51.28;42.60;68.31;;
186;Laerm;55473;48.800;9.002;2023-07-31T12:46:11;51.56;42.30;76.90;;
186;Laerm;55473;48.800;9.002;2023-07-31T12:48:38;51.10;41.02;66.22;;
186;Laerm;55473;48.800;9.002;2023-07-31T12:51:05;49.38;41.40;67.91;;
186;Laerm;55473;48.800;9.002;2023-07-31T12:53:32;48.68;41.96;68.96;;
186;Laerm;55473;48.800;9.002;2023-07-31T12:55:59;48.07;41.24;60.59;;
186;Laerm;55473;48.800;9.002;2023-07-31T12:58:25;46.64;40.95;54.70;;
186;Laerm;55473;48.800;9.002;2023-07-31T13:00:51;48.85;41.05;58.32;;
186;Laerm;55473;48.800;9.002;2023-07-31T13:03:18;47.81;41.79;55.98;;
186;Laerm;55473;48.800;9.002;2023-07-31T13:05:43;45.27;41.04;54.55;;
186;Laerm;55473;48.800;9.002;2023-07-31T13:08:09;51.22;41.74;66.83;;
186;Laerm;55473;48.800;9.002;2023-07-31T13:10:35;47.05;42.54;60.96;;
186;Laerm;55473;48.800;9.002;2023-07-31T13:13:01;50.09;44.81;62.51;;
186;Laerm;55473;48.800;9.002;2023-07-31T13:15:27;48.49;41.16;60.52;;
186;Laerm;55473;48.800;9.002;2023-07-31T13:17:53;50.08;43.37;59.37;;
186;Laerm;55473;48.800;9.002;2023-07-31T13:20:19;52.17;44.80;60.26;;
186;Laerm;55473;48.800;9.002;2023-07-31T13:22:45;48.46;44.13;61.90;;
186;Laerm;55473;48.800;9.002;2023-07-31T13:25:10;47.90;44.46;57.89;;
186;Laerm;55473;48.800;9.002;2023-07-31T13:27:36;48.43;43.02;63.21;;
186;Laerm;55473;48.800;9.002;2023-07-31T13:30:02;49.20;44.67;62.59;;
186;Laerm;55473;48.800;9.002;2023-07-31T13:32:29;49.20;43.44;59.39;;
186;Laerm;55473;48.800;9.002;2023-07-31T13:34:55;48.40;42.95;57.64;;
186;Laerm;55473;48.800;9.002;2023-07-31T13:37:21;48.48;44.13;63.89;;
186;Laerm;55473;48.800;9.002;2023-07-31T13:39:47;52.40;40.65;61.96;;
186;Laerm;55473;48.800;9.002;2023-07-31T13:42:13;46.51;42.05;56.21;;
186;Laerm;55473;48.800;9.002;2023-07-31T13:44:39;49.81;42.08;63.51;;
186;Laerm;55473;48.800;9.002;2023-07-31T13:47:06;48.42;41.32;60.50;;
186;Laerm;55473;48.800;9.002;2023-07-31T13:49:33;46.30;40.62;53.91;;
186;Laerm;55473;48.800;9.002;2023-07-31T13:52:00;44.65;39.27;54.37;;
186;Laerm;55473;48.800;9.002;2023-07-31T13:54:26;44.62;40.43;57.91;;
186;Laerm;55473;48.800;9.002;2023-07-31T13:56:52;45.96;41.26;66.35;;
186;Laerm;55473;48.800;9.002;2023-07-31T13:59:19;47.33;40.80;56.34;;
186;Laerm;55473;48.800;9.002;2023-07-31T14:01:45;47.30;41.98;57.12;;
186;Laerm;55473;48.800;9.002;2023-07-31T14:04:11;46.41;40.50;58.16;;
186;Laerm;55473;48.800;9.002;2023-07-31T14:06:37;45.54;40.01;62.09;;
186;Laerm;55473;48.800;9.002;2023-07-31T14:09:03;47.30;40.63;70.29;;
186;Laerm;55473;48.800;9.002;2023-07-31T14:11:31;46.32;40.32;71.71;;
186;Laerm;55473;48.800;9.002;2023-07-31T14:13:57;48.08;40.91;59.28;;
186;Laerm;55473;48.800;9.002;2023-07-31T14:16:23;49.31;41.74;57.64;;
186;Laerm;55473;48.800;9.002;2023-07-31T14:18:49;48.62;42.23;71.82;;
186;Laerm;55473;48.800;9.002;2023-07-31T14:21:15;45.65;40.14;62.89;;
186;Laerm;55473;48.800;9.002;2023-07-31T14:23:41;45.67;40.65;57.43;;
186;Laerm;55473;48.800;9.002;2023-07-31T14:26:08;46.15;40.25;67.79;;
186;Laerm;55473;48.800;9.002;2023-07-31T14:28:34;44.59;38.89;58.72;;